Time,TemperatureF,DewpointF,PressureIn,WindDirection,WindDirectionDegrees,WindSpeedMPH,WindSpeedGustMPH,Humidity,HourlyPrecipIn,Conditions,Clouds,dailyrainin,SoftwareType,DateUTC
2013-06-23 00:00:00,71.3,69.2,29.82,East,100,4.0,4.0,93,0.00,,,0.00,Wunderground v.1.15,2013-06-23 05:00:00,
2013-06-23 00:05:00,71.3,68.9,29.82,East,97,4.0,4.0,92,0.00,,,0.00,Wunderground v.1.15,2013-06-23 05:05:00,
2013-06-23 00:10:00,71.2,69.1,29.81,ENE,70,3.0,5.0,93,0.00,,,0.00,Wunderground v.1.15,2013-06-23 05:10:00,
2013-06-23 00:20:00,71.1,69.0,29.81,ENE,73,3.0,3.0,93,0.00,,,0.00,Wunderground v.1.15,2013-06-23 05:20:00,
2013-06-23 00:25:00,71.1,69.0,29.80,East,88,3.0,3.0,93,0.00,,,0.00,Wunderground v.1.15,2013-06-23 05:25:00,
2013-06-23 00:35:00,71.0,69.2,29.79,East,91,3.0,3.0,94,0.00,,,0.00,Wunderground v.1.15,2013-06-23 05:35:00,
2013-06-23 00:45:00,70.9,69.1,29.78,East,87,4.0,6.0,94,0.00,,,0.00,Wunderground v.1.15,2013-06-23 05:45:00,
2013-06-23 00:55:00,71.2,69.1,29.78,East,81,5.0,9.0,93,0.00,,,0.00,Wunderground v.1.15,2013-06-23 05:55:00,
2013-06-23 01:05:00,71.2,69.1,29.77,ENE,78,6.0,7.0,93,0.00,,,0.00,Wunderground v.1.15,2013-06-23 06:05:00,
2013-06-23 01:10:00,71.2,69.1,29.77,ESE,104,6.0,8.0,93,0.00,,,0.00,Wunderground v.1.15,2013-06-23 06:10:00,
2013-06-23 01:20:00,71.0,68.9,29.77,East,86,4.0,4.0,93,0.00,,,0.00,Wunderground v.1.15,2013-06-23 06:20:00,
2013-06-23 01:30:00,71.0,68.9,29.77,ESE,112,4.0,12.0,93,0.00,,,0.00,Wunderground v.1.15,2013-06-23 06:30:00,
2013-06-23 01:40:00,70.9,68.8,29.76,SE,126,5.0,5.0,93,0.00,,,0.00,Wunderground v.1.15,2013-06-23 06:40:00,
2013-06-23 01:45:00,70.8,68.7,29.77,ESE,121,4.0,5.0,93,0.00,,,0.00,Wunderground v.1.15,2013-06-23 06:45:00,
2013-06-23 01:55:00,70.9,68.8,29.76,SE,126,3.0,5.0,93,0.00,,,0.00,Wunderground v.1.15,2013-06-23 06:55:00,
2013-06-23 02:05:00,71.0,68.9,29.76,SE,129,2.0,6.0,93,0.00,,,0.00,Wunderground v.1.15,2013-06-23 07:05:00,
2013-06-23 02:15:00,71.3,68.9,29.75,East,90,3.0,3.0,92,0.00,,,0.00,Wunderground v.1.15,2013-06-23 07:15:00,
2013-06-23 02:20:00,71.5,69.1,29.74,ESE,112,4.0,5.0,92,0.00,,,0.00,Wunderground v.1.15,2013-06-23 07:20:00,
2013-06-23 02:30:00,71.7,68.9,29.73,SE,126,4.0,5.0,91,0.00,,,0.00,Wunderground v.1.15,2013-06-23 07:30:00,
2013-06-23 02:40:00,72.0,69.2,29.73,ESE,117,4.0,4.0,91,0.00,,,0.00,Wunderground v.1.15,2013-06-23 07:40:00,
2013-06-23 02:45:00,72.0,69.2,29.74,SSE,158,3.0,4.0,91,0.00,,,0.00,Wunderground v.1.15,2013-06-23 07:45:00,
2013-06-23 02:55:00,72.0,69.2,29.75,WSW,258,5.0,8.0,91,0.00,,,0.01,Wunderground v.1.15,2013-06-23 07:55:00,
2013-06-23 03:05:00,71.4,69.0,29.77,West,261,2.0,4.0,92,0.07,,,0.03,Wunderground v.1.15,2013-06-23 08:05:00,
2013-06-23 03:15:00,71.4,69.3,29.76,NNW,341,2.0,3.0,93,0.05,,,0.04,Wunderground v.1.15,2013-06-23 08:15:00,
2013-06-23 03:20:00,71.3,69.2,29.75,ENE,67,1.0,2.0,93,0.66,,,0.08,Wunderground v.1.15,2013-06-23 08:20:00,
2013-06-23 03:30:00,71.0,69.2,29.78,South,177,5.0,7.0,94,4.65,,,0.39,Wunderground v.1.15,2013-06-23 08:30:00,
2013-06-23 03:40:00,69.5,67.4,29.72,ESE,108,8.0,8.0,93,0.18,,,0.68,Wunderground v.1.15,2013-06-23 08:40:00,
2013-06-23 03:50:00,69.9,68.4,29.72,SSE,154,5.0,7.0,95,0.18,,,0.72,Wunderground v.1.15,2013-06-23 08:50:00,
2013-06-23 04:00:00,70.0,68.8,29.71,ESE,122,3.0,3.0,96,0.21,,,0.75,Wunderground v.1.15,2013-06-23 09:00:00,
2013-06-23 04:05:00,70.0,68.8,29.71,ESE,113,4.0,7.0,96,0.09,,,0.75,Wunderground v.1.15,2013-06-23 09:05:00,
2013-06-23 04:15:00,69.3,67.8,29.69,SE,136,4.0,8.0,95,0.20,,,0.77,Wunderground v.1.15,2013-06-23 09:15:00,
2013-06-23 04:20:00,69.1,67.9,29.68,ESE,118,4.0,4.0,96,0.10,,,0.77,Wunderground v.1.15,2013-06-23 09:20:00,
2013-06-23 04:30:00,69.1,68.2,29.69,South,189,3.0,11.0,97,0.39,,,0.82,Wunderground v.1.15,2013-06-23 09:30:00,
2013-06-23 04:40:00,69.2,68.0,29.68,SSW,210,6.0,6.0,96,0.27,,,0.95,Wunderground v.1.15,2013-06-23 09:40:00,
2013-06-23 04:50:00,69.4,68.5,29.68,SE,141,2.0,2.0,97,0.12,,,0.98,Wunderground v.1.15,2013-06-23 09:50:00,
2013-06-23 05:00:00,69.7,68.8,29.68,SE,139,3.0,6.0,97,0.04,,,0.98,Wunderground v.1.15,2013-06-23 10:00:00,
2013-06-23 05:05:00,69.9,69.0,29.68,South,170,3.0,6.0,97,0.00,,,0.99,Wunderground v.1.15,2013-06-23 10:05:00,
2013-06-23 05:15:00,70.0,69.1,29.67,SW,218,3.0,6.0,97,0.05,,,1.00,Wunderground v.1.15,2013-06-23 10:15:00,
2013-06-23 05:20:00,70.1,69.2,29.70,SW,229,4.0,4.0,97,0.05,,,1.00,Wunderground v.1.15,2013-06-23 10:20:00,
2013-06-23 05:30:00,70.0,68.8,29.71,WSW,240,4.0,4.0,96,0.08,,,1.01,Wunderground v.1.15,2013-06-23 10:30:00,
2013-06-23 05:35:00,69.2,67.7,29.71,ENE,59,3.0,4.0,95,0.14,,,1.03,Wunderground v.1.15,2013-06-23 10:35:00,
2013-06-23 05:45:00,68.4,66.9,29.72,South,185,4.0,6.0,95,0.06,,,1.03,Wunderground v.1.15,2013-06-23 10:45:00,
2013-06-23 05:50:00,68.5,67.0,29.72,ENE,72,4.0,4.0,95,0.04,,,1.03,Wunderground v.1.15,2013-06-23 10:50:00,
2013-06-23 06:00:00,68.7,67.2,29.71,East,96,1.0,2.0,95,0.00,,,1.04,Wunderground v.1.15,2013-06-23 11:00:00,
2013-06-23 06:05:00,68.6,67.1,29.71,East,97,1.0,2.0,95,0.20,,,1.06,Wunderground v.1.15,2013-06-23 11:05:00,
2013-06-23 06:15:00,69.7,68.8,29.71,SE,135,1.0,2.0,97,0.06,,,1.06,Wunderground v.1.15,2013-06-23 11:15:00,
2013-06-23 06:20:00,69.9,69.0,29.71,SE,128,1.0,1.0,97,0.04,,,1.06,Wunderground v.1.15,2013-06-23 11:20:00,
2013-06-23 06:30:00,70.3,69.4,29.70,South,184,1.0,1.0,97,0.00,,,1.06,Wunderground v.1.15,2013-06-23 11:30:00,
2013-06-23 06:40:00,70.4,69.5,29.69,SSE,158,2.0,2.0,97,0.00,,,1.06,Wunderground v.1.15,2013-06-23 11:40:00,
2013-06-23 06:50:00,70.5,69.3,29.67,SSE,152,3.0,4.0,96,0.00,,,1.06,Wunderground v.1.15,2013-06-23 11:50:00,
2013-06-23 07:00:00,70.5,69.3,29.67,SSE,163,3.0,3.0,96,0.00,,,1.06,Wunderground v.1.15,2013-06-23 12:00:00,
2013-06-23 07:05:00,70.4,69.2,29.66,SE,134,3.0,4.0,96,0.00,,,1.06,Wunderground v.1.15,2013-06-23 12:05:00,
2013-06-23 07:15:00,70.3,69.1,29.66,SSE,161,3.0,6.0,96,0.00,,,1.06,Wunderground v.1.15,2013-06-23 12:15:00,
2013-06-23 07:25:00,70.3,68.8,29.66,SSE,155,3.0,3.0,95,0.00,,,1.06,Wunderground v.1.15,2013-06-23 12:25:00,
2013-06-23 07:35:00,70.3,69.1,29.66,SSE,156,3.0,3.0,96,0.00,,,1.06,Wunderground v.1.15,2013-06-23 12:35:00,
2013-06-23 07:45:00,70.4,69.2,29.67,South,183,3.0,10.0,96,0.00,,,1.06,Wunderground v.1.15,2013-06-23 12:45:00,
2013-06-23 07:55:00,70.8,69.3,29.69,SW,214,10.0,14.0,95,0.00,,,1.06,Wunderground v.1.15,2013-06-23 12:55:00,
2013-06-23 08:05:00,71.1,69.3,29.69,SSW,199,10.0,10.0,94,0.00,,,1.06,Wunderground v.1.15,2013-06-23 13:05:00,
2013-06-23 08:15:00,71.4,69.0,29.68,SSW,196,11.0,13.0,92,0.00,,,1.06,Wunderground v.1.15,2013-06-23 13:15:00,
2013-06-23 08:20:00,71.5,69.1,29.68,South,189,10.0,14.0,92,0.00,,,1.06,Wunderground v.1.15,2013-06-23 13:20:00,
2013-06-23 08:30:00,71.4,68.6,29.67,SSW,197,10.0,12.0,91,0.00,,,1.06,Wunderground v.1.15,2013-06-23 13:30:00,
2013-06-23 08:39:00,70.9,68.1,29.68,WSW,247,9.0,9.0,91,0.00,,,1.06,Wunderground v.1.15,2013-06-23 13:39:00,
2013-06-23 08:45:00,70.5,68.1,29.68,SW,226,8.0,9.0,92,0.00,,,1.06,Wunderground v.1.15,2013-06-23 13:45:00,
2013-06-23 08:55:00,70.0,67.3,29.69,SW,226,8.0,9.0,91,0.00,,,1.06,Wunderground v.1.15,2013-06-23 13:55:00,
2013-06-23 09:05:00,69.4,66.7,29.70,SW,224,9.0,9.0,91,0.00,,,1.06,Wunderground v.1.15,2013-06-23 14:05:00,
2013-06-23 09:15:00,69.1,66.7,29.72,WSW,253,10.0,10.0,92,0.00,,,1.06,Wunderground v.1.15,2013-06-23 14:15:00,
2013-06-23 09:25:00,69.0,66.3,29.73,West,266,10.0,10.0,91,0.00,,,1.06,Wunderground v.1.15,2013-06-23 14:25:00,
2013-06-23 09:35:00,68.7,66.0,29.73,SW,229,10.0,10.0,91,0.00,,,1.06,Wunderground v.1.15,2013-06-23 14:35:00,
2013-06-23 09:40:00,68.9,66.2,29.73,SSW,202,9.0,9.0,91,0.00,,,1.06,Wunderground v.1.15,2013-06-23 14:40:00,
2013-06-23 09:50:00,69.2,65.8,29.74,West,263,12.0,12.0,89,0.00,,,1.06,Wunderground v.1.15,2013-06-23 14:50:00,
2013-06-23 10:00:00,69.2,65.8,29.73,SW,231,11.0,11.0,89,0.00,,,1.06,Wunderground v.1.15,2013-06-23 15:00:00,
2013-06-23 10:05:00,69.2,65.5,29.73,WSW,246,9.0,11.0,88,0.00,,,1.06,Wunderground v.1.15,2013-06-23 15:05:00,
2013-06-23 10:15:00,69.3,65.6,29.73,SW,230,10.0,10.0,88,0.00,,,1.06,Wunderground v.1.15,2013-06-23 15:15:00,
2013-06-23 10:25:00,69.8,65.8,29.74,SW,233,9.0,10.0,87,0.00,,,1.06,Wunderground v.1.15,2013-06-23 15:25:00,
2013-06-23 10:35:00,70.6,66.2,29.74,WSW,246,9.0,12.0,86,0.00,,,1.06,Wunderground v.1.15,2013-06-23 15:35:00,
2013-06-23 10:45:00,71.3,66.2,29.75,WSW,256,9.0,15.0,84,0.00,,,1.06,Wunderground v.1.15,2013-06-23 15:45:00,
2013-06-23 10:55:00,71.7,66.6,29.74,West,264,9.0,10.0,84,0.00,,,1.06,Wunderground v.1.15,2013-06-23 15:55:00,
2013-06-23 11:05:00,72.4,66.6,29.75,WSW,242,8.0,11.0,82,0.00,,,1.06,Wunderground v.1.15,2013-06-23 16:05:00,
2013-06-23 11:15:00,73.0,66.5,29.76,West,268,10.0,13.0,80,0.00,,,1.06,Wunderground v.1.15,2013-06-23 16:15:00,
2013-06-23 11:20:00,73.4,66.5,29.76,SW,231,8.0,8.0,79,0.00,,,1.06,Wunderground v.1.15,2013-06-23 16:20:00,
2013-06-23 11:30:00,74.1,66.4,29.76,WSW,247,9.0,9.0,77,0.00,,,1.06,Wunderground v.1.15,2013-06-23 16:30:00,
2013-06-23 11:40:00,73.9,67.0,29.77,WSW,256,9.0,9.0,79,0.00,,,1.06,Wunderground v.1.15,2013-06-23 16:40:00,
2013-06-23 11:45:00,74.2,67.3,29.77,WSW,252,8.0,9.0,79,0.00,,,1.06,Wunderground v.1.15,2013-06-23 16:45:00,
2013-06-23 11:55:00,74.4,67.5,29.77,West,279,11.0,13.0,79,0.00,,,1.06,Wunderground v.1.15,2013-06-23 16:55:00,
2013-06-23 12:00:00,74.8,68.2,29.77,WSW,258,11.0,11.0,80,0.00,,,1.06,Wunderground v.1.15,2013-06-23 17:00:00,
2013-06-23 12:05:00,74.8,67.8,29.77,WSW,251,10.0,11.0,79,0.00,,,1.06,Wunderground v.1.15,2013-06-23 17:05:00,
2013-06-23 12:15:00,74.8,67.5,29.77,West,263,9.0,10.0,78,0.00,,,1.06,Wunderground v.1.15,2013-06-23 17:15:00,
2013-06-23 12:25:00,75.2,68.2,29.77,WSW,245,8.0,12.0,79,0.00,,,1.06,Wunderground v.1.15,2013-06-23 17:25:00,
2013-06-23 12:35:00,76.0,67.5,29.77,West,274,9.0,9.0,75,0.00,,,1.06,Wunderground v.1.15,2013-06-23 17:35:00,
2013-06-23 12:45:00,76.6,67.7,29.77,WSW,238,9.0,10.0,74,0.00,,,1.06,Wunderground v.1.15,2013-06-23 17:45:00,
2013-06-23 12:54:00,76.9,68.8,29.77,WSW,240,8.0,9.0,76,0.00,,,1.06,Wunderground v.1.15,2013-06-23 17:54:00,
2013-06-23 13:00:00,77.4,68.9,29.78,SW,228,7.0,8.0,75,0.00,,,1.06,Wunderground v.1.15,2013-06-23 18:00:00,
2013-06-23 13:05:00,78.1,67.9,29.78,WSW,253,7.0,12.0,71,0.00,,,1.06,Wunderground v.1.15,2013-06-23 18:05:00,
2013-06-23 13:15:00,78.0,69.0,29.79,WSW,245,10.0,10.0,74,0.00,,,1.06,Wunderground v.1.15,2013-06-23 18:15:00,
2013-06-23 13:20:00,78.1,68.3,29.79,WSW,254,9.0,12.0,72,0.00,,,1.06,Wunderground v.1.15,2013-06-23 18:20:00,
2013-06-23 13:30:00,78.3,68.1,29.80,WSW,237,10.0,10.0,71,0.00,,,1.06,Wunderground v.1.15,2013-06-23 18:30:00,
2013-06-23 13:40:00,79.2,69.0,29.80,WSW,240,7.0,7.0,71,0.00,,,1.06,Wunderground v.1.15,2013-06-23 18:40:00,
2013-06-23 13:50:00,79.6,67.2,29.80,WSW,238,7.0,7.0,66,0.00,,,1.06,Wunderground v.1.15,2013-06-23 18:50:00,
2013-06-23 14:00:00,79.2,68.1,29.80,SSW,201,8.0,8.0,69,0.00,,,1.06,Wunderground v.1.15,2013-06-23 19:00:00,
2013-06-23 14:05:00,79.2,68.1,29.80,SW,224,7.0,9.0,69,0.00,,,1.06,Wunderground v.1.15,2013-06-23 19:05:00,
2013-06-23 14:14:00,79.4,66.6,29.80,WSW,250,10.0,12.0,65,0.00,,,1.06,Wunderground v.1.15,2013-06-23 19:14:00,
2013-06-23 14:20:00,79.7,66.9,29.80,SW,231,10.0,10.0,65,0.00,,,1.06,Wunderground v.1.15,2013-06-23 19:20:00,
2013-06-23 14:30:00,79.9,67.5,29.80,SW,224,9.0,9.0,66,0.00,,,1.06,Wunderground v.1.15,2013-06-23 19:30:00,
2013-06-23 14:40:00,80.0,68.1,29.80,WSW,239,8.0,8.0,67,0.00,,,1.06,Wunderground v.1.15,2013-06-23 19:40:00,
2013-06-23 14:50:00,79.7,68.2,29.80,SW,225,9.0,9.0,68,0.00,,,1.06,Wunderground v.1.15,2013-06-23 19:50:00,
2013-06-23 15:00:00,79.9,68.8,29.80,WSW,249,8.0,8.0,69,0.00,,,1.06,Wunderground v.1.15,2013-06-23 20:00:00,
2013-06-23 15:05:00,79.6,68.5,29.80,West,260,8.0,8.0,69,0.00,,,1.06,Wunderground v.1.15,2013-06-23 20:05:00,
2013-06-23 15:15:00,80.0,67.6,29.79,WSW,253,8.0,9.0,66,0.00,,,1.06,Wunderground v.1.15,2013-06-23 20:15:00,
2013-06-23 15:25:00,79.5,67.1,29.80,WSW,241,9.0,9.0,66,0.00,,,1.06,Wunderground v.1.15,2013-06-23 20:25:00,
2013-06-23 15:30:00,79.4,67.9,29.80,SW,216,9.0,9.0,68,0.00,,,1.06,Wunderground v.1.15,2013-06-23 20:30:00,
2013-06-23 15:39:00,79.6,67.2,29.80,WSW,238,7.0,7.0,66,0.00,,,1.06,Wunderground v.1.15,2013-06-23 20:39:00,
2013-06-23 15:45:00,80.1,66.8,29.80,WSW,241,8.0,8.0,64,0.00,,,1.06,Wunderground v.1.15,2013-06-23 20:45:00,
2013-06-23 15:55:00,80.1,66.4,29.80,SW,233,10.0,10.0,63,0.00,,,1.06,Wunderground v.1.15,2013-06-23 20:55:00,
2013-06-23 16:05:00,80.5,68.5,29.80,SW,232,9.0,10.0,67,0.00,,,1.06,Wunderground v.1.15,2013-06-23 21:05:00,
2013-06-23 16:15:00,80.3,67.9,29.80,SW,216,9.0,9.0,66,0.00,,,1.06,Wunderground v.1.15,2013-06-23 21:15:00,
2013-06-23 16:20:00,80.2,65.5,29.80,WSW,253,9.0,13.0,61,0.00,,,1.06,Wunderground v.1.15,2013-06-23 21:20:00,
2013-06-23 16:30:00,80.2,65.5,29.80,WSW,254,9.0,9.0,61,0.00,,,1.06,Wunderground v.1.15,2013-06-23 21:30:00,
2013-06-23 16:40:00,80.6,66.8,29.80,SW,228,8.0,8.0,63,0.00,,,1.06,Wunderground v.1.15,2013-06-23 21:40:00,
2013-06-23 16:45:00,81.0,66.8,29.80,WSW,258,7.0,8.0,62,0.00,,,1.06,Wunderground v.1.15,2013-06-23 21:45:00,
2013-06-23 16:55:00,80.9,66.7,29.80,WSW,241,9.0,9.0,62,0.00,,,1.06,Wunderground v.1.15,2013-06-23 21:55:00,
2013-06-23 17:00:00,80.8,67.5,29.80,SW,231,8.0,8.0,64,0.00,,,1.06,Wunderground v.1.15,2013-06-23 22:00:00,
2013-06-23 17:05:00,80.9,66.2,29.81,WSW,250,7.0,11.0,61,0.00,,,1.06,Wunderground v.1.15,2013-06-23 22:05:00,
2013-06-23 17:15:00,80.7,66.5,29.81,SW,235,8.0,8.0,62,0.00,,,1.06,Wunderground v.1.15,2013-06-23 22:15:00,
2013-06-23 17:25:00,81.3,64.6,29.81,WSW,245,8.0,14.0,57,0.00,,,1.06,Wunderground v.1.15,2013-06-23 22:25:00,
2013-06-23 17:35:00,81.1,65.9,29.81,SW,228,8.0,8.0,60,0.00,,,1.06,Wunderground v.1.15,2013-06-23 22:35:00,
2013-06-23 17:45:00,80.6,65.9,29.81,WSW,237,8.0,8.0,61,0.00,,,1.06,Wunderground v.1.15,2013-06-23 22:45:00,
2013-06-23 17:55:00,79.9,66.6,29.81,WSW,253,8.0,10.0,64,0.00,,,1.06,Wunderground v.1.15,2013-06-23 22:55:00,
2013-06-23 18:05:00,79.9,66.2,29.81,WSW,255,7.0,9.0,63,0.00,,,1.06,Wunderground v.1.15,2013-06-23 23:05:00,
2013-06-23 18:15:00,80.3,66.1,29.82,WSW,249,7.0,11.0,62,0.00,,,1.06,Wunderground v.1.15,2013-06-23 23:15:00,
2013-06-23 18:20:00,80.2,65.5,29.82,WNW,285,7.0,8.0,61,0.00,,,1.06,Wunderground v.1.15,2013-06-23 23:20:00,
2013-06-23 18:25:00,80.2,65.5,29.82,West,268,6.0,9.0,61,0.00,,,1.06,Wunderground v.1.15,2013-06-23 23:25:00,
2013-06-23 18:30:00,79.8,65.2,29.82,West,279,7.0,7.0,61,0.00,,,1.06,Wunderground v.1.15,2013-06-23 23:30:00,
2013-06-23 18:40:00,79.7,65.1,29.82,WSW,255,7.0,7.0,61,0.00,,,1.06,Wunderground v.1.15,2013-06-23 23:40:00,
2013-06-23 18:50:00,79.9,65.2,29.82,West,264,5.0,5.0,61,0.00,,,1.06,Wunderground v.1.15,2013-06-23 23:50:00,
2013-06-23 19:00:00,80.3,65.6,29.82,WSW,247,4.0,5.0,61,0.00,,,1.06,Wunderground v.1.15,2013-06-24 00:00:00,
2013-06-23 19:05:00,80.3,65.1,29.83,West,273,5.0,10.0,60,0.00,,,1.06,Wunderground v.1.15,2013-06-24 00:05:00,
2013-06-23 19:15:00,80.1,65.0,29.83,WSW,252,6.0,7.0,60,0.00,,,1.06,Wunderground v.1.15,2013-06-24 00:15:00,
2013-06-23 19:25:00,80.1,65.0,29.83,WSW,258,5.0,6.0,60,0.00,,,1.06,Wunderground v.1.15,2013-06-24 00:25:00,
2013-06-23 19:35:00,79.8,64.7,29.83,SW,217,5.0,5.0,60,0.00,,,1.06,Wunderground v.1.15,2013-06-24 00:35:00,
2013-06-23 19:40:00,79.8,64.7,29.83,West,275,4.0,6.0,60,0.00,,,1.06,Wunderground v.1.15,2013-06-24 00:40:00,
2013-06-23 19:50:00,79.4,64.3,29.84,West,265,5.0,5.0,60,0.00,,,1.06,Wunderground v.1.15,2013-06-24 00:50:00,
2013-06-23 20:00:00,79.1,65.0,29.83,NW,308,5.0,5.0,62,0.00,,,1.06,Wunderground v.1.15,2013-06-24 01:00:00,
2013-06-23 20:05:00,78.9,65.2,29.84,West,268,4.0,5.0,63,0.00,,,1.06,Wunderground v.1.15,2013-06-24 01:05:00,
2013-06-23 20:15:00,78.6,65.4,29.83,WNW,288,3.0,4.0,64,0.00,,,1.06,Wunderground v.1.15,2013-06-24 01:15:00,
2013-06-23 20:25:00,78.0,64.8,29.83,West,267,3.0,5.0,64,0.00,,,1.06,Wunderground v.1.15,2013-06-24 01:25:00,
2013-06-23 20:35:00,77.4,64.7,29.83,WNW,303,2.0,4.0,65,0.00,,,1.06,Wunderground v.1.15,2013-06-24 01:35:00,
2013-06-23 20:45:00,76.7,64.0,29.83,West,271,2.0,3.0,65,0.00,,,1.06,Wunderground v.1.15,2013-06-24 01:45:00,
2013-06-23 20:55:00,76.2,64.4,29.83,WSW,253,1.0,2.0,67,0.00,,,1.06,Wunderground v.1.15,2013-06-24 01:55:00,
2013-06-23 21:05:00,75.5,64.6,29.84,West,266,1.0,3.0,69,0.00,,,1.06,Wunderground v.1.15,2013-06-24 02:05:00,
2013-06-23 21:15:00,74.9,64.5,29.84,West,273,2.0,3.0,70,0.00,,,1.06,Wunderground v.1.15,2013-06-24 02:15:00,
2013-06-23 21:20:00,74.7,64.3,29.84,West,268,1.0,1.0,70,0.00,,,1.06,Wunderground v.1.15,2013-06-24 02:20:00,
2013-06-23 21:30:00,74.0,64.4,29.84,WSW,245,1.0,1.0,72,0.00,,,1.06,Wunderground v.1.15,2013-06-24 02:30:00,
2013-06-23 21:40:00,73.4,64.6,29.85,SW,221,1.0,2.0,74,0.00,,,1.06,Wunderground v.1.15,2013-06-24 02:40:00,
2013-06-23 21:50:00,72.6,64.6,29.86,SW,218,1.0,1.0,76,0.00,,,1.06,Wunderground v.1.15,2013-06-24 02:50:00,
2013-06-23 22:00:00,72.2,64.6,29.86,SW,218,1.0,1.0,77,0.00,,,1.06,Wunderground v.1.15,2013-06-24 03:00:00,
2013-06-23 22:05:00,71.9,64.7,29.86,SW,218,1.0,1.0,78,0.00,,,1.06,Wunderground v.1.15,2013-06-24 03:05:00,
2013-06-23 22:14:00,71.6,64.7,29.87,SW,218,0.0,1.0,79,0.00,,,1.06,Wunderground v.1.15,2013-06-24 03:14:00,
2013-06-23 22:20:00,71.5,64.6,29.87,SW,218,0.0,0.0,79,0.00,,,1.06,Wunderground v.1.15,2013-06-24 03:20:00,
2013-06-23 22:25:00,71.4,64.5,29.87,SW,218,0.0,0.0,79,0.00,,,1.06,Wunderground v.1.15,2013-06-24 03:25:00,
2013-06-23 22:35:00,71.2,64.7,29.87,SW,218,0.0,0.0,80,0.00,,,1.06,Wunderground v.1.15,2013-06-24 03:35:00,
2013-06-23 22:45:00,70.4,63.9,29.88,SW,218,0.0,0.0,80,0.00,,,1.06,Wunderground v.1.15,2013-06-24 03:45:00,
2013-06-23 22:55:00,69.6,63.9,29.88,SW,218,0.0,0.0,82,0.00,,,1.06,Wunderground v.1.15,2013-06-24 03:55:00,
2013-06-23 23:05:00,69.0,64.0,29.88,SW,217,0.0,2.0,84,0.00,,,1.06,Wunderground v.1.15,2013-06-24 04:05:00,
2013-06-23 23:15:00,69.1,63.7,29.88,SW,217,1.0,1.0,83,0.00,,,1.06,Wunderground v.1.15,2013-06-24 04:15:00,
2013-06-23 23:20:00,69.1,63.7,29.88,SW,217,0.0,0.0,83,0.00,,,1.06,Wunderground v.1.15,2013-06-24 04:20:00,
2013-06-23 23:25:00,69.1,63.7,29.88,SW,217,0.0,0.0,83,0.00,,,1.06,Wunderground v.1.15,2013-06-24 04:25:00,
2013-06-23 23:30:00,69.0,63.6,29.88,SW,217,0.0,0.0,83,0.00,,,1.06,Wunderground v.1.15,2013-06-24 04:30:00,
2013-06-23 23:35:00,68.8,63.8,29.88,SW,217,0.0,0.0,84,0.00,,,1.06,Wunderground v.1.15,2013-06-24 04:35:00,
2013-06-23 23:45:00,68.3,63.6,29.88,SW,217,0.0,0.0,85,0.00,,,1.06,Wunderground v.1.15,2013-06-24 04:45:00,
2013-06-23 23:55:00,67.9,63.2,29.89,SW,217,0.0,0.0,85,0.00,,,1.06,Wunderground v.1.15,2013-06-24 04:55:00,